Time;durP1;ratioP1;P1;durP2;ratioP2;P2;SDS_P1;SDS_P2;PMS_P1;PMS_P2;Temp;Humidity;BMP_temperature;BMP_pressure;BME280_temperature;BME280_humidity;BME280_pressure;Samples;Min_cycle;Max_cycle;Signal;HPM_P1;HPM_P2
2021/12/27 00:01:24;;;;;;;;;;;16.30;99.90;;;;;;5075778;28;1475;-56
2021/12/27 00:03:52;;;;;;;;;;;16.30;99.90;;;;;;5072865;28;1014;-56
2021/12/27 00:06:18;;;;;;;;;;;16.20;99.90;;;;;;5076113;28;1224;-56
2021/12/27 00:08:44;;;;;;;;;;;16.00;99.90;;;;;;5076159;28;1174;-46
2021/12/27 00:11:14;;;;;;;;;;;15.80;99.90;;;;;;5075997;28;1223;-46
2021/12/27 00:13:40;;;;;;;;;;;15.70;99.90;;;;;;5076169;28;1360;-46
2021/12/27 00:16:06;;;;;;;;;;;15.60;99.90;;;;;;5078455;28;1068;-56
2021/12/27 00:18:32;;;;;;;;;;;15.50;99.90;;;;;;5076299;28;1909;-55
2021/12/27 00:20:58;;;;;;;;;;;15.50;99.90;;;;;;5075272;28;1050;-46
2021/12/27 00:23:25;;;;;;;;;;;15.40;99.90;;;;;;5076264;28;1316;-55
2021/12/27 00:25:52;;;;;;;;;;;15.30;99.90;;;;;;5075474;28;1411;-56
2021/12/27 00:28:21;;;;;;;;;;;15.30;99.90;;;;;;5075854;28;1137;-55
2021/12/27 00:30:47;;;;;;;;;;;15.20;99.90;;;;;;5075452;28;1434;-46
2021/12/27 00:33:13;;;;;;;;;;;15.10;99.90;;;;;;5074384;28;1482;-55
2021/12/27 00:35:40;;;;;;;;;;;15.10;99.90;;;;;;5075766;28;809;-56
2021/12/27 00:38:07;;;;;;;;;;;15.00;99.90;;;;;;5075830;28;1902;-56
2021/12/27 00:40:33;;;;;;;;;;;14.90;99.90;;;;;;5076379;28;861;-47
2021/12/27 00:42:59;;;;;;;;;;;14.90;99.90;;;;;;5076076;28;1035;-56
2021/12/27 00:45:26;;;;;;;;;;;14.80;99.90;;;;;;5075585;28;935;-56
2021/12/27 00:47:54;;;;;;;;;;;14.80;99.90;;;;;;5076319;28;801;-46
2021/12/27 00:50:26;;;;;;;;;;;14.70;99.90;;;;;;5058077;28;1037;-46
2021/12/27 00:52:52;;;;;;;;;;;14.70;99.90;;;;;;5076071;28;813;-46
2021/12/27 00:55:21;;;;;;;;;;;14.70;99.90;;;;;;5076212;28;809;-46
2021/12/27 00:57:48;;;;;;;;;;;14.60;99.90;;;;;;5076146;28;1902;-46
2021/12/27 01:00:17;;;;;;;;;;;14.60;99.90;;;;;;5076045;28;1064;-46
2021/12/27 01:02:44;;;;;;;;;;;14.50;99.90;;;;;;5076097;28;876;-46
2021/12/27 01:05:10;;;;;;;;;;;14.40;99.90;;;;;;5075556;28;829;-46
2021/12/27 01:07:37;;;;;;;;;;;14.40;99.90;;;;;;5076188;28;802;-46
2021/12/27 01:13:18;;;;;;;;;;;14.20;99.90;;;;;;5033818;28;977;-46
2021/12/27 01:15:49;;;;;;;;;;;14.10;99.90;;;;;;5033868;28;870;-46
2021/12/27 01:18:16;;;;;;;;;;;14.10;99.90;;;;;;5034077;28;1934;-46
2021/12/27 01:20:43;;;;;;;;;;;14.10;99.90;;;;;;5034063;28;1009;-46
2021/12/27 01:23:11;;;;;;;;;;;14.00;99.90;;;;;;5034060;28;966;-46
2021/12/27 01:25:38;;;;;;;;;;;14.00;99.90;;;;;;5017320;28;850;-46
2021/12/27 01:28:06;;;;;;;;;;;14.00;99.90;;;;;;5034405;28;853;-46
2021/12/27 01:30:37;;;;;;;;;;;13.90;99.90;;;;;;5038058;28;955;-46
2021/12/27 01:33:05;;;;;;;;;;;13.90;99.90;;;;;;5034194;28;934;-46
2021/12/27 01:35:31;;;;;;;;;;;13.90;99.90;;;;;;5017507;28;873;-46
2021/12/27 01:37:58;;;;;;;;;;;13.80;99.90;;;;;;5033767;28;1969;-46
2021/12/27 01:40:25;;;;;;;;;;;13.80;99.90;;;;;;5037633;28;980;-56
2021/12/27 01:43:10;;;;;;;;;;;13.80;99.90;;;;;;5038067;28;998;-56
2021/12/27 01:45:46;;;;;;;;;;;13.80;99.90;;;;;;5038113;28;950;-56
2021/12/27 01:48:17;;;;;;;;;;;13.70;99.90;;;;;;5038438;28;1072;-55
2021/12/27 01:50:45;;;;;;;;;;;13.70;99.90;;;;;;5052727;28;1388;-47
2021/12/27 01:53:14;;;;;;;;;;;13.70;99.90;;;;;;5078917;28;782;-56
2021/12/27 01:55:40;;;;;;;;;;;13.60;99.90;;;;;;5079239;28;899;-56
2021/12/27 01:58:07;;;;;;;;;;;13.60;99.90;;;;;;5078716;28;1957;-56
2021/12/27 02:00:34;;;;;;;;;;;13.60;99.90;;;;;;5079488;28;844;-56
2021/12/27 02:03:00;;;;;;;;;;;13.50;99.90;;;;;;5079085;28;898;-56
2021/12/27 02:05:26;;;;;;;;;;;13.50;99.90;;;;;;5079256;28;892;-56
2021/12/27 02:07:52;;;;;;;;;;;13.50;99.90;;;;;;5078954;28;951;-56
2021/12/27 02:10:17;;;;;;;;;;;13.50;99.90;;;;;;5078981;28;1185;-56
2021/12/27 02:12:44;;;;;;;;;;;13.40;99.90;;;;;;5079236;28;829;-56
2021/12/27 02:15:12;;;;;;;;;;;13.40;99.90;;;;;;5078794;28;922;-56
2021/12/27 02:17:43;;;;;;;;;;;13.30;99.90;;;;;;5079408;28;978;-46
2021/12/27 02:20:28;;;;;;;;;;;13.30;99.90;;;;;;5077327;28;1914;-56
2021/12/27 02:22:55;;;;;;;;;;;13.20;99.90;;;;;;5079063;28;903;-56
2021/12/27 02:25:21;;;;;;;;;;;13.20;99.90;;;;;;5077730;28;983;-56
2021/12/27 02:27:48;;;;;;;;;;;13.20;99.90;;;;;;5079039;28;840;-56
2021/12/27 02:30:18;;;;;;;;;;;13.20;99.90;;;;;;5079120;28;836;-56
2021/12/27 02:32:55;;;;;;;;;;;13.20;99.90;;;;;;5079164;28;813;-56
2021/12/27 02:35:24;;;;;;;;;;;13.20;99.90;;;;;;5078590;28;920;-46
2021/12/27 02:37:50;;;;;;;;;;;13.10;99.90;;;;;;5079707;28;947;-46
2021/12/27 02:40:16;;;;;;;;;;;13.10;99.90;;;;;;5078046;28;1910;-46
2021/12/27 02:42:57;;;;;;;;;;;13.10;99.90;;;;;;5078762;28;802;-46
2021/12/27 02:45:23;;;;;;;;;;;13.10;99.90;;;;;;5077844;28;879;-46
2021/12/27 02:47:49;;;;;;;;;;;13.10;99.90;;;;;;5078598;28;1062;-46
2021/12/27 02:50:16;;;;;;;;;;;13.10;99.90;;;;;;5078687;28;809;-46
2021/12/27 02:52:44;;;;;;;;;;;13.00;99.90;;;;;;5075048;28;809;-46
2021/12/27 02:55:15;;;;;;;;;;;13.00;99.90;;;;;;5075863;28;964;-56
2021/12/27 02:57:43;;;;;;;;;;;13.00;99.90;;;;;;5078180;28;1139;-56
2021/12/27 03:00:15;;;;;;;;;;;13.00;99.90;;;;;;5078304;28;1971;-56
2021/12/27 03:02:43;;;;;;;;;;;12.90;99.90;;;;;;5076453;28;1041;-56
2021/12/27 03:05:11;;;;;;;;;;;12.90;99.90;;;;;;5078038;28;884;-56
2021/12/27 03:07:37;;;;;;;;;;;12.90;99.90;;;;;;5078159;28;926;-56
2021/12/27 03:10:04;;;;;;;;;;;12.90;99.90;;;;;;5077409;28;1048;-56
2021/12/27 03:12:30;;;;;;;;;;;12.90;99.90;;;;;;5078462;28;877;-56
2021/12/27 03:14:55;;;;;;;;;;;12.90;99.90;;;;;;5078218;28;816;-56
2021/12/27 03:17:21;;;;;;;;;;;12.80;99.90;;;;;;5077760;28;1137;-56
2021/12/27 03:19:47;;;;;;;;;;;12.80;99.90;;;;;;5077739;28;1914;-56
2021/12/27 03:22:15;;;;;;;;;;;12.80;99.90;;;;;;5077953;28;822;-46
2021/12/27 03:24:44;;;;;;;;;;;12.80;99.90;;;;;;5077629;28;861;-46
2021/12/27 03:27:11;;;;;;;;;;;12.70;99.90;;;;;;5077818;28;884;-46
2021/12/27 03:29:37;;;;;;;;;;;12.60;99.90;;;;;;5077824;28;1010;-46
2021/12/27 03:32:04;;;;;;;;;;;12.60;99.90;;;;;;5077601;28;864;-46
2021/12/27 03:34:32;;;;;;;;;;;12.60;99.90;;;;;;5077546;28;961;-56
2021/12/27 03:36:58;;;;;;;;;;;12.60;99.90;;;;;;5077397;28;865;-46
2021/12/27 03:39:24;;;;;;;;;;;12.60;99.90;;;;;;5077332;28;1937;-46
2021/12/27 03:41:50;;;;;;;;;;;12.60;99.90;;;;;;5077485;28;1091;-46
2021/12/27 03:44:17;;;;;;;;;;;12.60;99.90;;;;;;5077440;28;872;-46
2021/12/27 03:46:44;;;;;;;;;;;12.60;99.90;;;;;;5077804;28;921;-46
2021/12/27 03:49:12;;;;;;;;;;;12.60;99.90;;;;;;5077481;28;990;-46
2021/12/27 03:51:43;;;;;;;;;;;12.60;99.90;;;;;;5077186;28;946;-46
2021/12/27 03:54:11;;;;;;;;;;;12.50;99.90;;;;;;5075355;28;1005;-46
2021/12/27 03:56:37;;;;;;;;;;;12.50;99.90;;;;;;5077377;28;910;-46
2021/12/27 04:01:48;;;;;;;;;;;12.50;99.90;;;;;;5077070;28;877;-56
2021/12/27 04:04:15;;;;;;;;;;;12.50;99.90;;;;;;5077043;28;892;-56
2021/12/27 04:06:43;;;;;;;;;;;12.50;99.90;;;;;;5075819;28;895;-46
2021/12/27 04:09:10;;;;;;;;;;;12.50;99.90;;;;;;5076521;28;864;-46
2021/12/27 04:11:36;;;;;;;;;;;12.50;99.90;;;;;;5076311;28;1139;-46
2021/12/27 04:14:02;;;;;;;;;;;12.40;99.90;;;;;;5077248;28;968;-46
2021/12/27 04:16:29;;;;;;;;;;;12.40;99.90;;;;;;5082504;28;1324;-46
2021/12/27 04:18:55;;;;;;;;;;;12.40;99.90;;;;;;5080896;28;1971;-46
2021/12/27 04:21:22;;;;;;;;;;;12.40;99.90;;;;;;5076820;28;880;-46
2021/12/27 04:23:50;;;;;;;;;;;12.30;99.90;;;;;;5076637;28;835;-46
2021/12/27 04:26:16;;;;;;;;;;;12.30;99.90;;;;;;5076658;28;1377;-46
2021/12/27 04:28:42;;;;;;;;;;;12.20;99.90;;;;;;5082942;28;886;-46
2021/12/27 04:31:08;;;;;;;;;;;12.20;99.90;;;;;;5074968;28;945;-46
2021/12/27 04:33:35;;;;;;;;;;;12.30;99.90;;;;;;5076781;28;897;-46
2021/12/27 04:36:01;;;;;;;;;;;12.20;99.90;;;;;;5076379;28;865;-46
2021/12/27 04:38:26;;;;;;;;;;;12.30;99.90;;;;;;5076027;28;1937;-46
2021/12/27 04:40:53;;;;;;;;;;;12.20;99.90;;;;;;5076394;28;935;-46
2021/12/27 04:43:21;;;;;;;;;;;12.20;99.90;;;;;;5076698;28;875;-46
2021/12/27 04:45:49;;;;;;;;;;;12.20;99.90;;;;;;5075730;28;1408;-46
2021/12/27 04:48:18;;;;;;;;;;;12.20;99.90;;;;;;5076097;28;1120;-47
2021/12/27 04:50:45;;;;;;;;;;;12.20;99.90;;;;;;5092257;28;897;-46
2021/12/27 04:53:12;;;;;;;;;;;12.20;99.90;;;;;;5074878;28;922;-46
2021/12/27 04:55:38;;;;;;;;;;;12.20;99.90;;;;;;5075867;28;801;-46
2021/12/27 04:58:05;;;;;;;;;;;12.20;99.90;;;;;;5075792;28;830;-46
2021/12/27 05:00:31;;;;;;;;;;;12.20;99.90;;;;;;5076100;28;1969;-46
2021/12/27 05:02:58;;;;;;;;;;;12.20;99.90;;;;;;5075860;28;1170;-46
2021/12/27 05:05:25;;;;;;;;;;;12.20;99.90;;;;;;5075676;28;955;-46
2021/12/27 05:07:52;;;;;;;;;;;12.10;99.90;;;;;;5075664;28;896;-46
2021/12/27 05:10:18;;;;;;;;;;;12.10;99.90;;;;;;5075608;28;969;-46
2021/12/27 05:12:44;;;;;;;;;;;12.10;99.90;;;;;;5051198;28;1020;-46
2021/12/27 05:15:10;;;;;;;;;;;12.00;99.90;;;;;;5076082;28;840;-46
2021/12/27 05:17:36;;;;;;;;;;;12.00;99.90;;;;;;5075937;28;895;-46
2021/12/27 05:20:05;;;;;;;;;;;12.00;99.90;;;;;;5075871;28;1963;-46
2021/12/27 05:22:32;;;;;;;;;;;12.00;99.90;;;;;;5076132;28;836;-46
2021/12/27 05:24:58;;;;;;;;;;;12.00;99.90;;;;;;5074922;28;931;-46
2021/12/27 05:27:26;;;;;;;;;;;12.00;99.90;;;;;;5075788;28;821;-46
2021/12/27 05:29:53;;;;;;;;;;;12.00;99.90;;;;;;5074323;28;875;-46
2021/12/27 05:32:21;;;;;;;;;;;12.00;99.90;;;;;;5074477;28;931;-46
2021/12/27 05:34:47;;;;;;;;;;;12.00;99.90;;;;;;5075700;28;951;-56
2021/12/27 05:37:14;;;;;;;;;;;12.00;99.90;;;;;;5075569;28;1054;-46
2021/12/27 05:39:41;;;;;;;;;;;12.00;99.90;;;;;;5073969;28;1959;-46
2021/12/27 05:42:07;;;;;;;;;;;12.00;99.90;;;;;;5075112;28;892;-46
2021/12/27 05:44:33;;;;;;;;;;;12.00;99.90;;;;;;5075825;28;818;-46
2021/12/27 05:46:59;;;;;;;;;;;11.90;99.90;;;;;;5075344;28;827;-46
2021/12/27 05:49:26;;;;;;;;;;;11.90;99.90;;;;;;5075738;28;815;-46
2021/12/27 05:51:54;;;;;;;;;;;11.90;99.90;;;;;;5075723;28;887;-46
2021/12/27 05:54:22;;;;;;;;;;;11.80;99.90;;;;;;5075438;28;908;-46
2021/12/27 05:56:49;;;;;;;;;;;11.80;99.90;;;;;;5075552;28;875;-46
2021/12/27 05:59:16;;;;;;;;;;;11.80;99.90;;;;;;5075763;28;1955;-46
2021/12/27 06:01:43;;;;;;;;;;;11.80;99.90;;;;;;5075042;28;940;-46
2021/12/27 06:04:10;;;;;;;;;;;11.80;99.90;;;;;;5075194;28;897;-46
2021/12/27 06:06:37;;;;;;;;;;;11.80;99.90;;;;;;5075468;28;809;-46
2021/12/27 06:09:04;;;;;;;;;;;11.80;99.90;;;;;;5075315;28;943;-46
2021/12/27 06:11:30;;;;;;;;;;;11.80;99.90;;;;;;5075314;28;1033;-46
2021/12/27 06:13:57;;;;;;;;;;;11.90;99.90;;;;;;5075489;28;817;-46
2021/12/27 06:16:24;;;;;;;;;;;11.90;99.90;;;;;;5074796;28;962;-46
2021/12/27 06:18:51;;;;;;;;;;;12.00;99.90;;;;;;5091173;28;1972;-46
2021/12/27 06:21:18;;;;;;;;;;;12.00;99.90;;;;;;5074853;28;832;-46
2021/12/27 06:23:44;;;;;;;;;;;12.00;99.90;;;;;;5075140;28;920;-46
2021/12/27 06:26:09;;;;;;;;;;;12.00;99.90;;;;;;5078853;28;880;-46
2021/12/27 06:28:36;;;;;;;;;;;12.10;99.90;;;;;;5078948;28;1002;-46
2021/12/27 06:31:02;;;;;;;;;;;12.10;99.90;;;;;;5079232;28;800;-46
2021/12/27 06:33:29;;;;;;;;;;;12.10;99.90;;;;;;5078963;28;920;-46
2021/12/27 06:35:56;;;;;;;;;;;12.10;99.90;;;;;;5078491;28;864;-56
2021/12/27 06:38:23;;;;;;;;;;;12.20;99.90;;;;;;5078128;28;925;-56
2021/12/27 06:40:51;;;;;;;;;;;12.20;99.90;;;;;;5060509;28;1902;-56
2021/12/27 06:43:17;;;;;;;;;;;12.30;99.90;;;;;;5078922;28;1083;-46
2021/12/27 06:45:44;;;;;;;;;;;12.30;99.90;;;;;;5078945;28;1767;-56
2021/12/27 06:48:10;;;;;;;;;;;12.40;99.90;;;;;;5077409;28;935;-56
2021/12/27 06:50:36;;;;;;;;;;;12.40;99.90;;;;;;5078667;28;903;-56
2021/12/27 06:53:02;;;;;;;;;;;12.50;99.90;;;;;;5077661;28;1371;-56
2021/12/27 06:55:29;;;;;;;;;;;12.60;99.90;;;;;;5077813;28;904;-56
2021/12/27 06:57:56;;;;;;;;;;;12.60;99.90;;;;;;5078379;28;928;-56
2021/12/27 07:00:24;;;;;;;;;;;12.70;99.90;;;;;;5078287;28;1898;-46
2021/12/27 07:02:50;;;;;;;;;;;12.80;99.90;;;;;;5078681;28;897;-56
2021/12/27 07:05:17;;;;;;;;;;;12.80;99.90;;;;;;5078050;28;849;-56
2021/12/27 07:07:43;;;;;;;;;;;12.90;99.90;;;;;;5078028;28;1031;-46
2021/12/27 07:10:11;;;;;;;;;;;12.90;99.90;;;;;;5077745;28;1285;-46
2021/12/27 07:12:38;;;;;;;;;;;13.00;99.90;;;;;;5077560;28;1043;-46
2021/12/27 07:15:07;;;;;;;;;;;13.00;99.90;;;;;;5077737;28;734;-56
2021/12/27 07:17:33;;;;;;;;;;;13.10;99.90;;;;;;5078125;28;895;-56
2021/12/27 07:19:59;;;;;;;;;;;13.10;99.90;;;;;;5078123;28;1910;-56
2021/12/27 07:22:25;;;;;;;;;;;13.20;99.90;;;;;;5078288;28;872;-56
2021/12/27 07:24:51;;;;;;;;;;;13.20;99.90;;;;;;5078249;28;914;-56
2021/12/27 07:27:17;;;;;;;;;;;13.30;99.90;;;;;;5077671;28;829;-56
2021/12/27 07:29:43;;;;;;;;;;;13.30;99.90;;;;;;5077880;28;1038;-56
2021/12/27 07:32:09;;;;;;;;;;;13.30;99.90;;;;;;5077417;28;853;-56
2021/12/27 07:34:38;;;;;;;;;;;13.40;99.90;;;;;;5072580;28;908;-56
2021/12/27 07:37:04;;;;;;;;;;;13.40;99.90;;;;;;5072218;28;885;-56
2021/12/27 07:39:31;;;;;;;;;;;13.50;99.90;;;;;;5072480;28;1914;-56
2021/12/27 07:41:57;;;;;;;;;;;13.50;99.90;;;;;;5076387;28;995;-56
2021/12/27 07:44:23;;;;;;;;;;;13.50;99.90;;;;;;5077554;28;940;-56
2021/12/27 07:46:49;;;;;;;;;;;13.50;99.90;;;;;;5077167;28;923;-56
2021/12/27 07:49:15;;;;;;;;;;;13.50;99.90;;;;;;5075814;28;977;-56
2021/12/27 07:51:42;;;;;;;;;;;13.60;99.90;;;;;;5078501;28;983;-56
2021/12/27 07:54:10;;;;;;;;;;;13.60;99.90;;;;;;5077495;28;895;-56
2021/12/27 07:56:37;;;;;;;;;;;13.60;99.90;;;;;;5077352;28;845;-56
2021/12/27 07:59:04;;;;;;;;;;;13.60;99.90;;;;;;5077377;28;1971;-56
2021/12/27 08:01:35;;;;;;;;;;;13.60;99.90;;;;;;5077473;28;889;-56
2021/12/27 08:04:02;;;;;;;;;;;13.70;99.90;;;;;;5076634;28;881;-56
2021/12/27 08:06:28;;;;;;;;;;;13.70;99.90;;;;;;5076946;28;927;-56
2021/12/27 08:08:54;;;;;;;;;;;13.70;99.90;;;;;;5076561;28;931;-56
2021/12/27 08:11:20;;;;;;;;;;;13.70;99.90;;;;;;5077910;28;1854;-56
2021/12/27 08:13:49;;;;;;;;;;;13.70;99.90;;;;;;5079000;28;1357;-47
2021/12/27 08:16:17;;;;;;;;;;;13.80;99.90;;;;;;5079495;28;1580;-47
2021/12/27 08:18:46;;;;;;;;;;;13.80;99.90;;;;;;5082163;28;984;-47
2021/12/27 08:21:16;;;;;;;;;;;13.90;99.90;;;;;;5075551;28;900;-46
2021/12/27 08:23:42;;;;;;;;;;;13.90;99.90;;;;;;5076508;28;896;-46
2021/12/27 08:26:10;;;;;;;;;;;13.90;99.90;;;;;;5076625;28;800;-56
2021/12/27 08:28:37;;;;;;;;;;;14.00;99.90;;;;;;5076580;28;829;-46
2021/12/27 08:31:03;;;;;;;;;;;13.90;99.90;;;;;;5076033;28;1258;-46
2021/12/27 08:33:29;;;;;;;;;;;14.00;99.90;;;;;;5076738;28;848;-46
2021/12/27 08:35:56;;;;;;;;;;;14.00;99.90;;;;;;5076703;28;876;-46
2021/12/27 08:38:22;;;;;;;;;;;14.00;99.90;;;;;;5076502;28;971;-46
2021/12/27 08:40:48;;;;;;;;;;;14.10;99.90;;;;;;5075336;28;1985;-56
2021/12/27 08:43:14;;;;;;;;;;;14.10;99.90;;;;;;5076161;28;959;-56
2021/12/27 08:45:40;;;;;;;;;;;14.10;99.90;;;;;;5074996;28;968;-56
2021/12/27 08:48:06;;;;;;;;;;;14.10;99.90;;;;;;5076107;28;884;-56
2021/12/27 08:50:32;;;;;;;;;;;14.20;99.90;;;;;;5075744;28;968;-56
2021/12/27 08:52:59;;;;;;;;;;;14.20;99.90;;;;;;5034271;28;1299;-56
2021/12/27 08:55:25;;;;;;;;;;;14.20;99.90;;;;;;5033756;28;1258;-56
2021/12/27 08:57:51;;;;;;;;;;;14.30;99.90;;;;;;5034256;28;1301;-46
2021/12/27 09:00:17;;;;;;;;;;;14.30;99.90;;;;;;5032622;28;1902;-56
2021/12/27 09:02:45;;;;;;;;;;;14.30;99.90;;;;;;5034141;28;1294;-56
2021/12/27 09:05:11;;;;;;;;;;;14.40;99.90;;;;;;5032911;28;1271;-56
2021/12/27 09:07:37;;;;;;;;;;;14.40;99.90;;;;;;5033875;28;1243;-56
2021/12/27 09:10:06;;;;;;;;;;;14.40;99.90;;;;;;5033761;28;1235;-56
2021/12/27 09:12:32;;;;;;;;;;;14.40;99.90;;;;;;5034033;28;1310;-56
2021/12/27 09:15:00;;;;;;;;;;;14.50;99.90;;;;;;5017645;28;1377;-56
2021/12/27 09:17:26;;;;;;;;;;;14.50;99.90;;;;;;5033161;28;1350;-56
2021/12/27 09:19:53;;;;;;;;;;;14.50;99.90;;;;;;5031873;28;1902;-56
2021/12/27 09:22:19;;;;;;;;;;;14.50;99.90;;;;;;5032433;28;1224;-56
2021/12/27 09:24:46;;;;;;;;;;;14.50;99.90;;;;;;5068550;28;1099;-56
2021/12/27 09:27:12;;;;;;;;;;;14.60;99.90;;;;;;5089330;28;1127;-56
2021/12/27 09:29:41;;;;;;;;;;;14.60;99.90;;;;;;5075398;28;1135;-56
2021/12/27 09:32:08;;;;;;;;;;;14.60;99.90;;;;;;5075593;28;1194;-56
2021/12/27 09:34:35;;;;;;;;;;;14.70;99.90;;;;;;5075306;28;1083;-46
2021/12/27 09:37:01;;;;;;;;;;;14.70;99.90;;;;;;5074651;28;1269;-46
2021/12/27 09:39:27;;;;;;;;;;;14.70;99.90;;;;;;5074096;28;1906;-46
2021/12/27 09:41:55;;;;;;;;;;;14.70;99.90;;;;;;5075215;28;1027;-55
2021/12/27 09:44:22;;;;;;;;;;;14.80;99.90;;;;;;5074217;28;1226;-46
2021/12/27 09:46:48;;;;;;;;;;;14.80;99.90;;;;;;5072956;28;1203;-46
2021/12/27 09:49:15;;;;;;;;;;;14.80;99.90;;;;;;5077364;28;851;-46
2021/12/27 09:51:42;;;;;;;;;;;14.80;99.90;;;;;;5075322;28;861;-46
2021/12/27 09:54:09;;;;;;;;;;;14.80;99.90;;;;;;5074747;28;936;-56
2021/12/27 09:56:37;;;;;;;;;;;14.80;99.90;;;;;;5075186;28;876;-56
2021/12/27 09:59:04;;;;;;;;;;;14.90;99.90;;;;;;5075695;28;1972;-56
2021/12/27 10:01:30;;;;;;;;;;;14.90;99.90;;;;;;5079693;28;805;-46
2021/12/27 10:03:57;;;;;;;;;;;14.90;99.90;;;;;;5076395;28;882;-46
2021/12/27 10:06:27;;;;;;;;;;;14.90;99.90;;;;;;5078724;28;801;-46
2021/12/27 10:08:55;;;;;;;;;;;14.90;99.90;;;;;;5077875;28;924;-46
2021/12/27 10:11:30;;;;;;;;;;;14.90;99.90;;;;;;5075723;28;1127;-46
2021/12/27 10:14:01;;;;;;;;;;;14.90;99.90;;;;;;5074906;28;991;-55
2021/12/27 10:16:28;;;;;;;;;;;14.90;99.90;;;;;;5078931;28;939;-55
2021/12/27 10:18:54;;;;;;;;;;;14.90;99.90;;;;;;5079342;28;1024;-46
2021/12/27 10:21:21;;;;;;;;;;;14.90;99.90;;;;;;5079417;28;1985;-55
2021/12/27 10:23:47;;;;;;;;;;;14.90;99.90;;;;;;5079388;28;990;-55
2021/12/27 10:26:17;;;;;;;;;;;14.80;99.90;;;;;;5079086;28;947;-55
2021/12/27 10:28:43;;;;;;;;;;;14.80;99.90;;;;;;5078682;28;899;-46
2021/12/27 10:31:10;;;;;;;;;;;14.80;99.90;;;;;;5078852;28;947;-46
2021/12/27 10:33:36;;;;;;;;;;;14.80;99.90;;;;;;5078268;28;860;-46
2021/12/27 10:36:04;;;;;;;;;;;14.80;99.90;;;;;;5078174;28;909;-46
2021/12/27 10:38:31;;;;;;;;;;;14.80;99.90;;;;;;5078799;28;889;-46
2021/12/27 10:40:57;;;;;;;;;;;14.90;99.90;;;;;;5078608;28;1961;-46
2021/12/27 10:43:42;;;;;;;;;;;14.90;99.90;;;;;;5078273;28;916;-46
2021/12/27 10:46:18;;;;;;;;;;;14.90;99.90;;;;;;5078834;28;953;-45
2021/12/27 10:48:55;;;;;;;;;;;14.90;99.90;;;;;;5078293;28;1085;-54
2021/12/27 10:51:21;;;;;;;;;;;14.90;99.90;;;;;;5078362;28;860;-45
2021/12/27 10:53:48;;;;;;;;;;;15.00;99.90;;;;;;5077663;28;891;-45
2021/12/27 10:56:16;;;;;;;;;;;15.00;99.90;;;;;;5078371;28;962;-45
2021/12/27 10:58:46;;;;;;;;;;;15.00;99.90;;;;;;5078261;28;1257;-45
2021/12/27 11:01:17;;;;;;;;;;;15.10;99.90;;;;;;5077421;28;1901;-45
2021/12/27 11:03:44;;;;;;;;;;;15.10;99.90;;;;;;5077724;28;817;-45
2021/12/27 11:06:13;;;;;;;;;;;15.10;99.90;;;;;;5078433;28;814;-46
2021/12/27 11:08:45;;;;;;;;;;;15.10;99.90;;;;;;5076350;28;1004;-45
2021/12/27 11:11:13;;;;;;;;;;;15.20;99.90;;;;;;5091330;28;1138;-55
2021/12/27 11:13:41;;;;;;;;;;;15.20;99.90;;;;;;5077037;28;983;-55
2021/12/27 11:16:08;;;;;;;;;;;15.20;99.90;;;;;;5092715;28;1711;-45
2021/12/27 11:18:34;;;;;;;;;;;15.30;99.90;;;;;;5077321;28;1105;-45
2021/12/27 11:21:01;;;;;;;;;;;15.30;99.90;;;;;;5077318;28;1984;-45
2021/12/27 11:23:28;;;;;;;;;;;15.30;99.90;;;;;;5075658;28;1238;-55
2021/12/27 11:26:03;;;;;;;;;;;15.30;99.90;;;;;;5078093;28;1193;-46
2021/12/27 11:28:33;;;;;;;;;;;15.40;99.90;;;;;;5072552;28;912;-45
2021/12/27 11:31:03;;;;;;;;;;;15.40;99.90;;;;;;5093960;28;876;-45
2021/12/27 11:33:30;;;;;;;;;;;15.50;99.90;;;;;;5078195;28;875;-45
2021/12/27 11:35:59;;;;;;;;;;;15.50;99.90;;;;;;5077534;28;924;-54
2021/12/27 11:38:29;;;;;;;;;;;15.60;99.90;;;;;;5077167;28;1036;-54
2021/12/27 11:40:55;;;;;;;;;;;15.60;99.90;;;;;;5077851;28;1914;-54
2021/12/27 11:43:21;;;;;;;;;;;15.70;99.90;;;;;;5077509;28;1309;-45
2021/12/27 11:45:52;;;;;;;;;;;15.70;99.90;;;;;;5076637;28;1456;-46
2021/12/27 11:48:20;;;;;;;;;;;15.80;99.90;;;;;;5076620;28;936;-54
2021/12/27 11:50:57;;;;;;;;;;;15.80;99.90;;;;;;5077166;28;1098;-54
2021/12/27 11:53:29;;;;;;;;;;;15.80;99.90;;;;;;5075075;28;1273;-54
2021/12/27 11:55:55;;;;;;;;;;;15.80;99.90;;;;;;5076971;28;1288;-54
2021/12/27 11:58:43;;;;;;;;;;;15.90;99.90;;;;;;5075507;28;1305;-45
2021/12/27 12:01:21;;;;;;;;;;;15.90;99.90;;;;;;5076631;28;1981;-46
2021/12/27 12:03:49;;;;;;;;;;;15.90;99.90;;;;;;5075495;28;1309;-45
2021/12/27 12:06:34;;;;;;;;;;;15.90;99.90;;;;;;5075870;28;1344;-46
2021/12/27 12:09:00;;;;;;;;;;;15.90;99.90;;;;;;5074618;28;1301;-53
2021/12/27 12:11:31;;;;;;;;;;;15.90;99.90;;;;;;5076045;28;1300;-46
2021/12/27 12:13:59;;;;;;;;;;;15.90;99.90;;;;;;5072700;28;1163;-46
2021/12/27 12:16:26;;;;;;;;;;;15.90;99.90;;;;;;5076758;28;1281;-46
2021/12/27 12:18:52;;;;;;;;;;;16.00;99.90;;;;;;5076614;28;885;-46
2021/12/27 12:21:33;;;;;;;;;;;16.00;99.90;;;;;;5075580;28;2249;-46
2021/12/27 12:23:59;;;;;;;;;;;16.00;99.90;;;;;;5076261;28;1040;-46
2021/12/27 12:26:25;;;;;;;;;;;16.00;99.90;;;;;;5076225;28;834;-46
2021/12/27 12:28:59;;;;;;;;;;;16.00;99.90;;;;;;5076822;28;928;-46
2021/12/27 12:31:30;;;;;;;;;;;16.00;99.90;;;;;;5076852;28;908;-46
2021/12/27 12:34:06;;;;;;;;;;;16.00;99.90;;;;;;5076824;28;968;-54
2021/12/27 12:36:43;;;;;;;;;;;16.00;99.90;;;;;;5076444;28;971;-54
2021/12/27 12:39:10;;;;;;;;;;;16.10;99.90;;;;;;5092587;28;832;-46
2021/12/27 12:41:36;;;;;;;;;;;16.10;99.90;;;;;;5074791;28;1901;-46
2021/12/27 12:44:02;;;;;;;;;;;16.10;99.90;;;;;;5076387;28;844;-46
2021/12/27 12:46:38;;;;;;;;;;;16.20;99.90;;;;;;5076039;28;1015;-54
2021/12/27 12:49:08;;;;;;;;;;;16.20;99.90;;;;;;5070331;28;1097;-54
2021/12/27 12:51:52;;;;;;;;;;;16.20;99.90;;;;;;5075700;28;1011;-54
2021/12/27 12:54:32;;;;;;;;;;;16.30;99.90;;;;;;5090193;28;1420;-54
2021/12/27 12:57:04;;;;;;;;;;;16.30;99.90;;;;;;5076079;28;857;-46
2021/12/27 12:59:56;;;;;;;;;;;16.40;99.90;;;;;;5076053;28;1906;-54
2021/12/27 13:02:26;;;;;;;;;;;16.40;99.90;;;;;;5073470;28;1966;-54
2021/12/27 13:04:55;;;;;;;;;;;16.40;99.90;;;;;;5075332;28;1633;-54
2021/12/27 13:07:44;;;;;;;;;;;16.50;99.90;;;;;;5075333;28;1218;-54
2021/12/27 13:10:29;;;;;;;;;;;16.50;99.90;;;;;;5075703;28;1071;-54
2021/12/27 13:13:00;;;;;;;;;;;16.50;99.90;;;;;;5075885;28;920;-54
2021/12/27 13:15:28;;;;;;;;;;;16.60;99.90;;;;;;5071791;28;1193;-45
2021/12/27 13:18:00;;;;;;;;;;;16.60;99.90;;;;;;5075753;28;1157;-46
2021/12/27 13:20:27;;;;;;;;;;;16.70;99.90;;;;;;5072809;28;1941;-46
2021/12/27 13:23:11;;;;;;;;;;;16.70;99.90;;;;;;5074301;28;1478;-54
2021/12/27 13:25:37;;;;;;;;;;;16.70;99.90;;;;;;5073325;28;1090;-54
2021/12/27 13:28:26;;;;;;;;;;;16.70;99.90;;;;;;5074998;28;1282;-54
2021/12/27 13:30:57;;;;;;;;;;;16.70;99.90;;;;;;5033292;28;1374;-54
2021/12/27 13:33:29;;;;;;;;;;;16.70;99.90;;;;;;5033494;28;1073;-54
2021/12/27 13:35:56;;;;;;;;;;;16.80;99.90;;;;;;5032155;28;1061;-54
2021/12/27 13:38:30;;;;;;;;;;;16.80;99.90;;;;;;5033493;28;1069;-54
2021/12/27 13:41:02;;;;;;;;;;;16.80;99.90;;;;;;5031051;28;2019;-46
2021/12/27 13:43:29;;;;;;;;;;;16.80;99.90;;;;;;5033792;28;912;-46
2021/12/27 13:45:55;;;;;;;;;;;16.80;99.90;;;;;;5032608;28;1076;-46
2021/12/27 13:48:30;;;;;;;;;;;16.70;99.90;;;;;;5031311;28;1353;-46
2021/12/27 13:50:57;;;;;;;;;;;16.70;99.90;;;;;;5049934;28;1545;-54
2021/12/27 13:53:24;;;;;;;;;;;16.70;99.90;;;;;;5033998;28;825;-54
2021/12/27 13:55:51;;;;;;;;;;;16.70;99.90;;;;;;5033412;28;968;-54
2021/12/27 13:58:22;;;;;;;;;;;16.70;99.90;;;;;;5030682;28;968;-54
2021/12/27 14:00:53;;;;;;;;;;;16.70;99.90;;;;;;5015113;28;1961;-54
2021/12/27 14:03:24;;;;;;;;;;;16.70;99.90;;;;;;5031573;28;1486;-54
2021/12/27 14:05:54;;;;;;;;;;;16.60;99.90;;;;;;5033757;28;825;-54
2021/12/27 14:08:23;;;;;;;;;;;16.60;99.90;;;;;;5045268;28;1019;-54
2021/12/27 14:11:00;;;;;;;;;;;16.60;99.90;;;;;;5053016;28;1664;-55
2021/12/27 14:13:48;;;;;;;;;;;16.60;99.90;;;;;;5049641;28;874;-54
2021/12/27 14:16:33;;;;;;;;;;;16.60;99.90;;;;;;5013527;28;1383;-54
2021/12/27 14:18:59;;;;;;;;;;;16.60;99.90;;;;;;5053634;28;900;-54
2021/12/27 14:21:26;;;;;;;;;;;16.50;99.90;;;;;;5053536;28;1975;-46
2021/12/27 14:24:05;;;;;;;;;;;16.50;99.90;;;;;;5053624;28;855;-46
2021/12/27 14:26:32;;;;;;;;;;;16.50;99.90;;;;;;5052548;28;1160;-46
2021/12/27 14:29:25;;;;;;;;;;;16.40;99.90;;;;;;5061430;28;1098;-46
2021/12/27 14:31:57;;;;;;;;;;;16.30;99.90;;;;;;5072926;28;1082;-46
2021/12/27 14:34:47;;;;;;;;;;;16.30;99.90;;;;;;5075090;28;836;-46
2021/12/27 14:37:14;;;;;;;;;;;16.30;99.90;;;;;;5074996;28;993;-46
2021/12/27 14:39:40;;;;;;;;;;;16.30;99.90;;;;;;5075025;28;849;-46
2021/12/27 14:42:07;;;;;;;;;;;16.30;99.90;;;;;;5075154;28;1902;-46
2021/12/27 14:44:40;;;;;;;;;;;16.20;99.90;;;;;;5075292;28;810;-46
2021/12/27 14:47:06;;;;;;;;;;;16.20;99.90;;;;;;5072671;28;1559;-54
2021/12/27 14:49:33;;;;;;;;;;;16.20;99.90;;;;;;5073867;28;871;-54